createdAt,value
2019-06-26T00:04:19.591Z,98692.17
2019-06-26T00:14:26.599Z,98691.72
2019-06-26T00:21:05.877Z,98691.17
2019-06-26T00:27:44.529Z,98693.52
2019-06-26T00:34:12.670Z,98698.77
2019-06-26T00:40:38.265Z,98698.39
2019-06-26T00:47:06.983Z,98695.09
2019-06-26T00:53:33.168Z,98696.56
2019-06-26T00:59:22.228Z,98702.43
2019-06-26T01:07:19.580Z,98697.83
2019-06-26T01:09:50.201Z,98696.06
2019-06-26T01:12:20.922Z,98699.59
2019-06-26T01:14:51.437Z,98698.95
2019-06-26T01:17:22.034Z,98702.44
2019-06-26T01:19:52.522Z,98702.98
2019-06-26T01:22:23.126Z,98703.64
2019-06-26T01:24:55.096Z,98703.44
2019-06-26T01:27:25.700Z,98704.71
2019-06-26T01:29:56.303Z,98701.10
2019-06-26T01:32:26.863Z,98701.43
2019-06-26T01:34:57.452Z,98701.79
2019-06-26T01:37:27.998Z,98705.61
2019-06-26T01:39:58.562Z,98707.22
2019-06-26T01:42:29.133Z,98709.14
2019-06-26T01:44:59.761Z,98708.55
2019-06-26T01:47:30.384Z,98704.82
2019-06-26T01:50:00.938Z,98708.97
2019-06-26T01:52:31.508Z,98713.22
2019-06-26T01:55:03.604Z,98707.83
2019-06-26T01:57:36.385Z,98709.70
2019-06-26T02:00:07.963Z,98712.66
2019-06-26T02:02:38.606Z,98712.30
2019-06-26T02:05:10.432Z,98709.52
2019-06-26T02:07:40.994Z,98714.84
2019-06-26T02:10:12.268Z,98710.86
2019-06-26T02:12:42.872Z,98713.89
2019-06-26T02:15:13.673Z,98713.41
2019-06-26T02:17:44.324Z,98714.25
2019-06-26T02:20:14.864Z,98715.59
2019-06-26T02:22:45.464Z,98714.15
2019-06-26T02:25:16.141Z,98714.26
2019-06-26T02:27:46.746Z,98716.33
2019-06-26T02:30:17.406Z,98720.06
2019-06-26T02:32:47.984Z,98715.44
2019-06-26T02:35:18.754Z,98720.27
2019-06-26T02:37:49.303Z,98723.09
2019-06-26T02:40:20.146Z,98723.19
2019-06-26T02:42:50.722Z,98723.05
2019-06-26T02:45:21.263Z,98726.33
2019-06-26T02:47:51.840Z,98726.75
2019-06-26T02:50:22.383Z,98733.13
2019-06-26T02:52:53.019Z,98725.16
2019-06-26T02:55:24.540Z,98725.26
2019-06-26T02:57:55.106Z,98731.47
2019-06-26T03:00:26.760Z,98728.25
2019-06-26T03:02:57.310Z,98728.59
2019-06-26T03:05:27.989Z,98727.95
2019-06-26T03:07:58.547Z,98728.08
2019-06-26T03:10:29.834Z,98726.36
2019-06-26T03:13:00.500Z,98725.45
2019-06-26T03:15:31.139Z,98726.52
2019-06-26T03:18:01.767Z,98728.48
2019-06-26T03:20:37.044Z,98736.73
2019-06-26T03:23:07.637Z,98726.39
2019-06-26T03:25:38.140Z,98738.39
2019-06-26T03:28:08.929Z,98734.48
2019-06-26T03:30:39.532Z,98744.30
2019-06-26T03:33:10.098Z,98741.13
2019-06-26T03:35:40.963Z,98741.60
2019-06-26T03:38:11.912Z,98746.15
2019-06-26T03:40:42.494Z,98751.24
2019-06-26T03:43:13.132Z,98758.11
2019-06-26T03:45:43.787Z,98755.75
2019-06-26T03:48:14.514Z,98762.40
2019-06-26T03:50:45.093Z,98763.91
2019-06-26T03:53:15.724Z,98764.94
2019-06-26T03:55:47.095Z,98768.59
2019-06-26T03:58:17.820Z,98769.95
2019-06-26T04:00:48.382Z,98768.37
2019-06-26T04:03:18.957Z,98765.23
2019-06-26T04:05:49.582Z,98764.20
2019-06-26T04:08:20.129Z,98767.85
2019-06-26T04:10:50.693Z,98769.35
2019-06-26T04:13:21.474Z,98774.16
2019-06-26T04:15:51.985Z,98776.27
2019-06-26T04:18:22.488Z,98776.05
2019-06-26T04:20:53.085Z,98780.03
2019-06-26T04:23:23.642Z,98781.92
2019-06-26T04:25:54.225Z,98787.53
2019-06-26T04:28:24.798Z,98784.31
2019-06-26T04:30:55.348Z,98785.77
2019-06-26T04:33:25.927Z,98787.79
2019-06-26T04:35:56.489Z,98788.13
2019-06-26T04:38:27.053Z,98795.56
2019-06-26T04:40:59.593Z,98793.20
2019-06-26T04:43:30.154Z,98789.59
2019-06-26T04:46:01.386Z,98794.17
2019-06-26T04:48:31.957Z,98788.90
2019-06-26T04:51:02.491Z,98799.10
2019-06-26T04:53:33.229Z,98798.66
2019-06-26T04:56:03.829Z,98798.75
2019-06-26T04:58:34.473Z,98798.27
2019-06-26T05:01:05.139Z,98797.53
2019-06-26T05:03:35.682Z,98796.42
2019-06-26T05:06:07.260Z,98798.86
2019-06-26T05:08:37.906Z,98798.94
2019-06-26T05:11:08.478Z,98795.24
2019-06-26T05:13:39.091Z,98794.17
2019-06-26T05:16:15.021Z,98800.75
2019-06-26T05:18:42.097Z,98804.61
2019-06-26T05:21:13.343Z,98801.98
2019-06-26T05:23:43.938Z,98799.18
2019-06-26T05:26:16.425Z,98800.36
2019-06-26T05:28:46.969Z,98799.58
2019-06-26T05:31:18.336Z,98798.84
2019-06-26T05:33:48.858Z,98801.88
2019-06-26T05:36:19.438Z,98801.69
2019-06-26T05:38:50.131Z,98805.20
2019-06-26T05:41:20.830Z,98800.75
2019-06-26T05:43:51.413Z,98797.13
2019-06-26T05:46:30.916Z,98800.70
2019-06-26T05:48:54.358Z,98804.80
2019-06-26T05:51:24.954Z,98807.86
2019-06-26T05:53:55.479Z,98813.28
2019-06-26T05:56:26.081Z,98817.34
2019-06-26T05:58:56.645Z,98820.40
2019-06-26T06:01:27.286Z,98825.50
2019-06-26T06:03:57.815Z,98825.89
2019-06-26T06:06:40.988Z,98819.29
2019-06-26T06:09:00.685Z,98819.67
2019-06-26T06:11:31.312Z,98814.70
2019-06-26T06:14:04.846Z,98817.19
2019-06-26T06:16:46.772Z,98821.31
2019-06-26T06:19:07.776Z,98820.03
2019-06-26T06:21:38.358Z,98820.95
2019-06-26T06:24:09.005Z,98821.05
2019-06-26T06:26:39.600Z,98820.84
2019-06-26T06:29:10.168Z,98820.66
2019-06-26T06:31:40.691Z,98822.62
2019-06-26T06:34:11.259Z,98822.44
2019-06-26T06:36:41.842Z,98821.20
2019-06-26T06:39:12.406Z,98824.77
2019-06-26T06:41:43.526Z,98826.43
2019-06-26T06:44:14.232Z,98829.14
2019-06-26T06:46:44.820Z,98828.17
2019-06-26T06:49:15.353Z,98833.05
2019-06-26T06:51:45.943Z,98833.94
2019-06-26T06:54:16.542Z,98833.50
2019-06-26T06:56:47.067Z,98834.38
2019-06-26T06:59:17.839Z,98838.19
2019-06-26T07:01:48.774Z,98834.79
2019-06-26T07:04:19.397Z,98837.55
2019-06-26T07:06:50.035Z,98840.02
2019-06-26T07:09:20.968Z,98843.02
2019-06-26T07:11:52.148Z,98845.77
2019-06-26T07:14:27.132Z,98846.37
2019-06-26T07:17:01.441Z,98843.48
2019-06-26T07:19:39.390Z,98848.41
2019-06-26T07:22:20.564Z,98846.33
2019-06-26T07:24:51.425Z,98839.18
2019-06-26T07:27:22.060Z,98838.95
2019-06-26T07:29:52.705Z,98847.30
2019-06-26T07:32:23.309Z,98846.30
2019-06-26T07:34:53.900Z,98843.68
2019-06-26T07:37:25.648Z,98843.99
2019-06-26T07:40:01.366Z,98844.31
2019-06-26T07:42:28.502Z,98850.53
2019-06-26T07:44:59.149Z,98848.46
2019-06-26T07:47:42.594Z,98842.34
2019-06-26T07:50:02.200Z,98848.80
2019-06-26T07:52:32.859Z,98852.61
2019-06-26T07:55:03.518Z,98842.45
2019-06-26T07:57:34.061Z,98843.02
2019-06-26T08:00:04.815Z,98839.89
2019-06-26T08:02:35.437Z,98840.16
2019-06-26T08:05:06.902Z,98845.54
2019-06-26T08:07:37.463Z,98838.61
2019-06-26T08:10:09.586Z,98834.31
2019-06-26T08:12:40.187Z,98837.81
2019-06-26T08:15:11.068Z,98837.53
2019-06-26T08:17:55.946Z,98833.78
2019-06-26T10:09:23.436Z,98866.34
2019-06-26T10:11:54.075Z,98857.63
2019-06-26T10:14:24.596Z,98858.76
2019-06-26T10:16:55.204Z,98858.78
2019-06-26T10:19:25.774Z,98852.50
2019-06-26T10:21:56.581Z,98856.20
2019-06-26T10:24:27.216Z,98854.16
2019-06-26T10:26:57.948Z,98845.41
2019-06-26T10:29:28.521Z,98845.77
2019-06-26T10:31:59.172Z,98841.94
2019-06-26T10:34:29.772Z,98842.11
2019-06-26T10:37:00.476Z,98842.56
2019-06-26T10:39:31.043Z,98837.34
2019-06-26T10:42:01.588Z,98830.69
2019-06-26T10:44:32.376Z,98838.15
2019-06-26T10:47:10.676Z,98829.26
2019-06-26T10:49:41.499Z,98827.45
2019-06-26T10:52:13.272Z,98825.30
2019-06-26T10:54:44.576Z,98814.05
2019-06-26T10:57:15.396Z,98822.72
2019-06-26T10:59:45.974Z,98815.30
2019-06-26T11:02:17.074Z,98814.72
2019-06-26T11:04:47.985Z,98814.91
2019-06-26T11:07:18.543Z,98817.02
2019-06-26T11:09:49.211Z,98813.41
2019-06-26T11:12:19.810Z,98811.75
2019-06-26T11:14:50.446Z,98819.30
2019-06-26T11:17:21.062Z,98817.39
2019-06-26T11:19:55.152Z,98813.28
2019-06-26T11:22:23.999Z,98814.30
2019-06-26T11:24:54.514Z,98806.37
2019-06-26T11:27:25.083Z,98807.34
2019-06-26T11:29:55.656Z,98819.23
2019-06-26T11:32:26.255Z,98818.15
2019-06-26T11:34:56.845Z,98820.20
2019-06-26T11:37:27.391Z,98825.76
2019-06-26T11:39:58.019Z,98821.18
2019-06-26T11:42:32.477Z,98819.30
2019-06-26T11:45:00.900Z,98825.36
2019-06-26T11:47:31.529Z,98815.66
2019-06-26T11:50:02.023Z,98814.38
2019-06-26T11:52:32.672Z,98814.63
2019-06-26T11:55:04.001Z,98817.02
2019-06-26T11:57:34.835Z,98814.28
2019-06-26T12:00:08.410Z,98812.33
2019-06-26T12:02:38.957Z,98813.02
2019-06-26T12:05:10.279Z,98807.20
2019-06-26T12:07:40.945Z,98804.05
2019-06-26T12:10:12.000Z,98792.03
2019-06-26T12:12:42.589Z,98790.77
2019-06-26T12:15:14.107Z,98789.42
2019-06-26T12:17:44.647Z,98799.33
2019-06-26T12:20:19.208Z,98792.45
2019-06-26T12:22:48.663Z,98796.95
2019-06-26T12:25:19.364Z,98793.44
2019-06-26T12:27:49.922Z,98791.22
2019-06-26T12:30:21.310Z,98785.22
2019-06-26T12:33:02.895Z,98782.98
2019-06-26T12:35:24.245Z,98784.27
2019-06-26T12:37:54.807Z,98782.37
2019-06-26T12:40:25.638Z,98783.17
2019-06-26T12:42:56.263Z,98777.21
2019-06-26T12:45:26.870Z,98773.37
2019-06-26T12:47:57.509Z,98766.98
2019-06-26T12:50:35.353Z,98770.52
2019-06-26T12:53:02.844Z,98774.32
2019-06-26T12:55:33.383Z,98763.00
2019-06-26T12:58:13.014Z,98761.81
2019-06-26T13:00:36.276Z,98762.94
2019-06-26T13:03:07.032Z,98758.75
2019-06-26T13:05:37.580Z,98756.87
2019-06-26T13:08:08.383Z,98753.35
2019-06-26T13:10:49.102Z,98753.02
2019-06-26T13:13:11.455Z,98747.47
2019-06-26T13:15:42.032Z,98746.66
2019-06-26T13:18:12.608Z,98751.61
2019-06-26T13:20:52.623Z,98741.72
2019-06-26T13:23:15.732Z,98738.42
2019-06-26T13:25:48.768Z,98739.58
2019-06-26T13:28:19.381Z,98730.53
2019-06-26T13:30:53.053Z,98743.40
2019-06-26T13:33:22.259Z,98741.63
2019-06-26T13:35:52.836Z,98736.20
2019-06-26T13:38:26.996Z,98733.41
2019-06-26T13:40:55.780Z,98727.20
2019-06-26T13:43:27.738Z,98735.16
2019-06-26T13:45:58.938Z,98731.66
2019-06-26T13:48:29.648Z,98735.64
2019-06-26T13:51:09.281Z,98735.80
2019-06-26T13:53:34.097Z,98731.11
2019-06-26T13:56:11.110Z,98732.01
2019-06-26T13:58:42.990Z,98735.59
2019-06-26T14:01:13.562Z,98729.11
2019-06-26T14:03:44.253Z,98721.89
2019-06-26T14:06:15.042Z,98718.13
2019-06-26T14:08:45.635Z,98719.78
2019-06-26T14:11:16.256Z,98717.00
2019-06-26T14:13:46.917Z,98722.24
2019-06-26T14:16:17.758Z,98715.22
2019-06-26T14:18:49.486Z,98714.86
2019-06-26T14:21:25.592Z,98723.20
2019-06-26T14:23:52.778Z,98721.25
2019-06-26T14:26:23.482Z,98717.83
2019-06-26T14:28:56.850Z,98711.48
2019-06-26T14:31:27.723Z,98709.53
2019-06-26T14:33:58.545Z,98709.02
2019-06-26T14:36:29.612Z,98705.20
2019-06-26T14:39:00.240Z,98705.83
2019-06-26T14:41:30.920Z,98701.73
2019-06-26T14:44:01.953Z,98699.16
2019-06-26T14:46:32.984Z,98698.55
2019-06-26T14:49:03.632Z,98694.74
2019-06-26T14:51:43.867Z,98704.94
2019-06-26T14:54:07.183Z,98702.60
2019-06-26T14:56:37.947Z,98699.88
2019-06-26T14:59:08.684Z,98700.23
2019-06-26T15:01:40.363Z,98698.53
2019-06-26T15:04:13.426Z,98691.41
2019-06-26T15:06:44.127Z,98689.16
2019-06-26T15:09:14.746Z,98687.62
2019-06-26T15:11:45.429Z,98688.29
2019-06-26T15:14:16.083Z,98690.57
2019-06-26T15:16:46.843Z,98683.32
2019-06-26T15:19:17.397Z,98687.52
2019-06-26T15:21:57.776Z,98681.84
2019-06-26T15:24:20.558Z,98675.02
2019-06-26T15:26:51.161Z,98681.33
2019-06-26T15:29:21.723Z,98675.18
2019-06-26T15:31:52.382Z,98667.59
2019-06-26T15:34:26.147Z,98658.24
2019-06-26T15:36:55.330Z,98655.52
2019-06-26T15:39:25.898Z,98647.64
2019-06-26T15:41:56.541Z,98646.81
2019-06-26T15:44:27.269Z,98650.17
2019-06-26T15:46:57.994Z,98648.43
2019-06-26T15:49:28.565Z,98646.59
2019-06-26T15:52:14.176Z,98639.66
2019-06-26T15:54:31.465Z,98640.66
2019-06-26T15:57:02.084Z,98642.64
2019-06-26T15:59:32.750Z,98633.67
2019-06-26T16:02:03.408Z,98630.67
2019-06-26T16:04:35.183Z,98633.88
2019-06-26T16:07:06.031Z,98623.22
2019-06-26T16:09:36.671Z,98630.53
2019-06-26T16:12:07.276Z,98624.04
2019-06-26T16:14:38.806Z,98623.75
2019-06-26T16:17:16.364Z,98619.52
2019-06-26T16:19:46.938Z,98624.17
2019-06-26T16:22:31.254Z,98623.28
2019-06-26T16:24:50.084Z,98620.13
2019-06-26T16:27:20.686Z,98621.70
2019-06-26T16:29:52.329Z,98621.27
2019-06-26T16:32:23.088Z,98618.77
2019-06-26T16:34:55.113Z,98630.59
2019-06-26T16:37:25.689Z,98631.05
2019-06-26T16:40:00.586Z,98623.52
2019-06-26T16:42:31.224Z,98621.58
2019-06-26T16:45:06.997Z,98619.28
2019-06-26T16:47:37.603Z,98615.55
2019-06-26T16:50:09.265Z,98611.41
2019-06-26T16:52:49.018Z,98616.78
2019-06-26T16:55:12.319Z,98622.05
2019-06-26T16:57:42.974Z,98620.41
2019-06-26T17:00:15.562Z,98626.70
2019-06-26T17:02:46.288Z,98618.97
2019-06-26T17:05:17.369Z,98620.53
2019-06-26T17:07:48.133Z,98620.23
2019-06-26T17:10:20.372Z,98626.02
2019-06-26T17:12:50.976Z,98626.92
2019-06-26T17:15:21.626Z,98629.66
2019-06-26T17:17:52.246Z,98625.95
2019-06-26T17:20:23.912Z,98626.66
2019-06-26T17:23:05.175Z,98633.28
2019-06-26T17:25:27.860Z,98634.19
2019-06-26T17:27:58.482Z,98634.61
2019-06-26T17:30:29.080Z,98630.80
2019-06-26T17:32:59.690Z,98638.06
2019-06-26T17:35:30.252Z,98636.24
2019-06-26T17:38:00.885Z,98642.95
2019-06-26T17:40:31.446Z,98641.55
2019-06-26T17:43:11.773Z,98653.29
2019-06-26T17:45:34.591Z,98645.12
2019-06-26T17:48:05.348Z,98651.52
2019-06-26T17:50:36.069Z,98651.96
2019-06-26T17:53:20.635Z,98654.87
2019-06-26T17:55:39.702Z,98654.39
2019-06-26T17:58:10.646Z,98658.36
2019-06-26T18:00:41.572Z,98657.14
2019-06-26T18:03:16.670Z,98659.69
2019-06-26T18:05:52.587Z,98663.64
2019-06-26T18:08:24.300Z,98657.22
2019-06-26T18:10:54.887Z,98662.71
2019-06-26T18:13:28.317Z,98663.11
2019-06-26T18:15:58.957Z,98662.24
2019-06-26T18:18:29.556Z,98666.39
2019-06-26T18:21:00.118Z,98668.59
2019-06-26T18:23:38.008Z,98673.42
2019-06-26T18:26:13.019Z,98683.66
2019-06-26T18:28:35.529Z,98679.50
2019-06-26T18:31:09.104Z,98685.09
2019-06-26T18:33:39.704Z,98680.55
2019-06-26T18:36:10.404Z,98692.11
2019-06-26T18:38:40.994Z,98685.02
2019-06-26T18:41:11.576Z,98691.91
2019-06-26T18:43:42.214Z,98685.72
2019-06-26T18:46:13.078Z,98684.73
2019-06-26T18:48:43.718Z,98686.02
2019-06-26T18:51:14.430Z,98690.17
2019-06-26T18:53:53.451Z,98696.80
2019-06-26T18:56:17.824Z,98703.98
2019-06-26T18:58:48.459Z,98703.11
2019-06-26T19:01:19.036Z,98702.26
2019-06-26T19:03:49.601Z,98710.06
2019-06-26T19:06:20.308Z,98700.55
2019-06-26T19:08:50.889Z,98712.75
2019-06-26T19:11:22.919Z,98700.39
2019-06-26T19:13:54.842Z,98706.23
2019-06-26T19:16:25.511Z,98716.50
2019-06-26T19:18:56.137Z,98711.84
2019-06-26T19:21:27.029Z,98713.77
2019-06-26T19:24:09.533Z,98712.56
2019-06-26T19:26:30.031Z,98716.17
2019-06-26T19:29:00.618Z,98716.22
2019-06-26T19:31:31.191Z,98719.21
2019-06-26T19:34:01.795Z,98720.64
2019-06-26T19:36:45.861Z,98727.35
2019-06-26T19:39:07.075Z,98719.73
2019-06-26T19:41:37.760Z,98727.23
2019-06-26T19:44:09.159Z,98727.89
2019-06-26T19:46:41.991Z,98726.52
2019-06-26T19:49:12.855Z,98735.33
2019-06-26T19:51:43.560Z,98739.80
2019-06-26T19:54:26.418Z,98744.17
2019-06-26T19:56:46.507Z,98742.75
2019-06-26T19:59:17.177Z,98752.61
2019-06-26T20:01:51.276Z,98760.32
2019-06-26T20:04:20.405Z,98761.88
2019-06-26T20:06:51.704Z,98762.10
2019-06-26T20:09:22.328Z,98759.86
2019-06-26T20:11:52.902Z,98765.17
2019-06-26T20:14:23.528Z,98766.30
2019-06-26T20:16:54.194Z,98764.20
2019-06-26T20:19:24.837Z,98768.70
2019-06-26T20:21:55.457Z,98770.44
2019-06-26T20:24:42.562Z,98777.53
2019-06-26T20:26:58.422Z,98780.83
2019-06-26T20:29:28.996Z,98783.05
2019-06-26T20:31:59.595Z,98784.23
2019-06-26T20:34:31.265Z,98788.14
2019-06-26T20:37:01.831Z,98791.53
2019-06-26T20:39:32.407Z,98803.70
2019-06-26T20:42:03.291Z,98794.92
2019-06-26T20:44:33.953Z,98799.88
2019-06-26T20:47:04.646Z,98798.69
2019-06-26T20:49:35.224Z,98805.20
2019-06-26T20:52:05.781Z,98803.84
2019-06-26T20:54:36.395Z,98810.14
2019-06-26T20:57:07.618Z,98806.38
2019-06-26T20:59:38.264Z,98819.23
2019-06-26T21:02:08.791Z,98812.30
2019-06-26T21:04:39.466Z,98815.89
2019-06-26T21:07:10.070Z,98816.42
2019-06-26T21:09:40.609Z,98824.72
2019-06-26T21:12:11.505Z,98822.25
2019-06-26T21:14:42.341Z,98829.02
2019-06-26T21:17:12.968Z,98829.34
2019-06-26T21:19:43.568Z,98832.15
2019-06-26T21:22:14.199Z,98832.16
2019-06-26T21:24:44.759Z,98828.45
2019-06-26T21:27:15.672Z,98828.45
2019-06-26T21:29:46.652Z,98832.80
2019-06-26T21:32:18.030Z,98836.84
2019-06-26T21:34:49.043Z,98842.34
2019-06-26T21:37:20.177Z,98844.27
2019-06-26T21:39:51.193Z,98839.41
2019-06-26T21:42:22.136Z,98841.06
2019-06-26T21:44:54.089Z,98838.14
2019-06-26T21:47:24.747Z,98837.09
2019-06-26T21:49:56.170Z,98841.16
2019-06-26T21:52:28.822Z,98838.98
2019-06-26T21:54:59.427Z,98844.39
2019-06-26T21:57:30.187Z,98838.30
2019-06-26T22:00:03.288Z,98849.09
2019-06-26T22:02:36.592Z,98848.05
2019-06-26T22:05:08.848Z,98850.73
2019-06-26T22:07:39.387Z,98850.73
2019-06-26T22:10:11.969Z,98848.08
2019-06-26T22:12:42.507Z,98841.62
2019-06-26T22:15:15.043Z,98855.94
2019-06-26T22:17:45.707Z,98854.05
2019-06-26T22:20:18.029Z,98855.98
2019-06-26T22:22:48.707Z,98858.95
2019-06-26T22:25:20.283Z,98853.32
2019-06-26T22:27:50.893Z,98851.41
2019-06-26T22:30:22.004Z,98850.91
2019-06-26T22:32:52.585Z,98853.05
2019-06-26T22:35:23.255Z,98852.34
2019-06-26T22:37:53.795Z,98852.34
2019-06-26T22:40:24.338Z,98857.23
2019-06-26T22:42:55.951Z,98855.62
2019-06-26T22:45:26.538Z,98858.05
2019-06-26T22:47:57.232Z,98857.55
2019-06-26T22:50:27.768Z,98855.98
2019-06-26T22:52:58.389Z,98850.59
2019-06-26T22:55:29.936Z,98861.91
2019-06-26T22:58:00.560Z,98857.09
2019-06-26T23:00:31.158Z,98855.50
2019-06-26T23:03:01.741Z,98859.52
2019-06-26T23:05:38.169Z,98864.40
2019-06-26T23:08:08.720Z,98862.02
2019-06-26T23:10:39.325Z,98861.20
2019-06-26T23:13:09.940Z,98860.68
2019-06-26T23:15:40.444Z,98871.73
2019-06-26T23:18:11.069Z,98867.95
2019-06-26T23:20:42.208Z,98870.92
2019-06-26T23:23:12.836Z,98866.92
2019-06-26T23:25:43.456Z,98873.91
2019-06-26T23:28:13.990Z,98873.40
2019-06-26T23:30:44.601Z,98883.63
2019-06-26T23:33:15.137Z,98884.95
2019-06-26T23:35:45.974Z,98885.79
2019-06-26T23:38:16.512Z,98888.23
2019-06-26T23:40:47.063Z,98893.06
2019-06-26T23:43:17.661Z,98891.46
2019-06-26T23:45:48.257Z,98888.24
2019-06-26T23:48:18.868Z,98893.59
2019-06-26T23:50:49.436Z,98901.66
2019-06-26T23:53:19.993Z,98890.14
2019-06-26T23:55:50.567Z,98894.17
2019-06-26T23:58:21.175Z,98896.03
